Time;durP1;ratioP1;P1;durP2;ratioP2;P2;SDS_P1;SDS_P2;PMS_P1;PMS_P2;Temp;Humidity;BMP_temperature;BMP_pressure;BME280_temperature;BME280_humidity;BME280_pressure;Samples;Min_cycle;Max_cycle;Signal;HPM_P1;HPM_P2
2024/01/16 00:00:22;;;;;;;;;;;-2.40;99.90;;;;;;5072319;28;19927;-86
2024/01/16 00:02:48;;;;;;;;;;;-2.40;99.90;;;;;;5067456;28;19922;-86
2024/01/16 00:05:13;;;;;;;;;;;-2.40;99.90;;;;;;5071856;28;19927;-86
2024/01/16 00:07:39;;;;;;;;;;;-2.30;99.90;;;;;;5071459;28;20014;-86
2024/01/16 00:10:08;;;;;;;;;;;-2.40;99.90;;;;;;5050462;28;19923;-86
2024/01/16 00:12:33;;;;;;;;;;;-2.40;99.90;;;;;;5073737;28;19925;-86
2024/01/16 00:15:00;;;;;;;;;;;-2.30;99.90;;;;;;5071096;28;19921;-86
2024/01/16 00:17:25;;;;;;;;;;;-2.30;99.90;;;;;;5071679;28;20027;-86
2024/01/16 00:19:51;;;;;;;;;;;-2.30;99.90;;;;;;5072784;28;19908;-85
2024/01/16 00:22:16;;;;;;;;;;;-2.40;99.90;;;;;;5072298;28;20284;-86
2024/01/16 00:24:42;;;;;;;;;;;-2.50;99.90;;;;;;5053108;28;20391;-86
2024/01/16 00:27:07;;;;;;;;;;;-2.50;99.90;;;;;;5071208;28;20055;-85
2024/01/16 00:29:33;;;;;;;;;;;-2.60;99.90;;;;;;5072113;28;19912;-86
2024/01/16 00:31:58;;;;;;;;;;;-2.60;99.90;;;;;;5068786;28;20404;-86
2024/01/16 00:34:23;;;;;;;;;;;-2.60;99.90;;;;;;5054084;28;20387;-86
2024/01/16 00:36:49;;;;;;;;;;;-2.60;99.90;;;;;;5072469;28;19913;-85
2024/01/16 00:39:15;;;;;;;;;;;-2.60;99.90;;;;;;5054470;28;19959;-85
2024/01/16 00:41:40;;;;;;;;;;;-2.60;99.90;;;;;;5070335;28;19916;-85
2024/01/16 00:44:07;;;;;;;;;;;-2.80;99.90;;;;;;5071374;28;20300;-85
2024/01/16 00:46:33;;;;;;;;;;;-2.80;99.90;;;;;;5071128;28;19943;-85
2024/01/16 00:48:58;;;;;;;;;;;-2.70;99.90;;;;;;5067987;28;19962;-85
2024/01/16 00:51:25;;;;;;;;;;;-2.90;99.90;;;;;;5070647;28;20065;-85
2024/01/16 00:53:50;;;;;;;;;;;-2.80;99.90;;;;;;5071532;28;19909;-86
2024/01/16 00:56:16;;;;;;;;;;;-2.80;99.90;;;;;;5071936;28;19911;-86
2024/01/16 00:58:41;;;;;;;;;;;-2.80;99.90;;;;;;5072435;28;19912;-85
2024/01/16 01:01:07;;;;;;;;;;;-2.80;99.90;;;;;;5070665;28;20015;-86
2024/01/16 01:03:33;;;;;;;;;;;-2.80;99.90;;;;;;5049034;28;19912;-85
2024/01/16 01:05:59;;;;;;;;;;;-2.90;99.90;;;;;;5071754;28;19912;-86
2024/01/16 01:08:25;;;;;;;;;;;-3.00;99.90;;;;;;5070118;28;19909;-85
2024/01/16 01:10:50;;;;;;;;;;;-2.90;99.90;;;;;;5071513;28;20311;-85
2024/01/16 01:13:16;;;;;;;;;;;-2.90;99.90;;;;;;5054025;28;19908;-85
2024/01/16 01:15:41;;;;;;;;;;;-3.00;99.90;;;;;;5070131;28;19916;-85
2024/01/16 01:18:06;;;;;;;;;;;-2.90;99.90;;;;;;5070487;28;19996;-85
2024/01/16 01:20:32;;;;;;;;;;;-2.80;99.90;;;;;;5071498;28;19916;-85
2024/01/16 01:22:58;;;;;;;;;;;-2.70;99.90;;;;;;5067075;28;19920;-85
2024/01/16 01:25:25;;;;;;;;;;;-2.60;99.90;;;;;;5069126;28;19909;-85
2024/01/16 01:27:51;;;;;;;;;;;-2.70;99.90;;;;;;5069494;28;19915;-85
2024/01/16 01:30:17;;;;;;;;;;;-2.60;99.90;;;;;;5049154;28;19912;-85
2024/01/16 01:32:43;;;;;;;;;;;-2.70;99.90;;;;;;5071268;28;19999;-85
2024/01/16 01:35:10;;;;;;;;;;;-2.60;99.90;;;;;;5070585;28;19934;-85
2024/01/16 01:37:36;;;;;;;;;;;-2.60;99.90;;;;;;5071587;28;19958;-86
2024/01/16 01:40:07;;;;;;;;;;;-2.50;99.90;;;;;;5071305;28;19916;-85
2024/01/16 01:42:32;;;;;;;;;;;-2.60;99.90;;;;;;5049790;28;19924;-85
2024/01/16 01:44:58;;;;;;;;;;;-2.70;99.90;;;;;;5070797;28;20574;-85
2024/01/16 01:47:24;;;;;;;;;;;-2.70;99.90;;;;;;5052080;28;19919;-85
2024/01/16 01:49:50;;;;;;;;;;;-2.60;99.90;;;;;;5070688;28;20320;-85
2024/01/16 01:52:16;;;;;;;;;;;-2.80;99.90;;;;;;5071653;28;19950;-85
2024/01/16 01:54:44;;;;;;;;;;;-2.70;99.90;;;;;;5070438;28;19956;-84
2024/01/16 01:57:10;;;;;;;;;;;-2.60;99.90;;;;;;5069106;28;19966;-84
2024/01/16 01:59:36;;;;;;;;;;;-2.60;99.90;;;;;;5069420;28;19928;-85
2024/01/16 02:02:02;;;;;;;;;;;-2.60;99.90;;;;;;5051212;28;19920;-85
2024/01/16 02:04:29;;;;;;;;;;;-2.70;99.90;;;;;;5070099;28;19919;-85
2024/01/16 02:06:54;;;;;;;;;;;-2.80;99.90;;;;;;5053518;28;19908;-85
2024/01/16 02:09:20;;;;;;;;;;;-2.90;99.90;;;;;;5068833;28;19973;-85
2024/01/16 02:11:45;;;;;;;;;;;-2.80;99.90;;;;;;5070665;28;19991;-85
2024/01/16 02:14:10;;;;;;;;;;;-2.80;99.90;;;;;;5055690;28;19916;-85
2024/01/16 02:16:40;;;;;;;;;;;-2.70;99.90;;;;;;5065611;28;19914;-85
2024/01/16 02:19:06;;;;;;;;;;;-2.80;99.90;;;;;;5053016;28;19999;-84
2024/01/16 02:21:38;;;;;;;;;;;-2.80;99.90;;;;;;5055300;28;19923;-85
2024/01/16 02:24:05;;;;;;;;;;;-2.70;99.90;;;;;;5062736;28;19919;-85
2024/01/16 02:26:30;;;;;;;;;;;-2.60;99.90;;;;;;5052334;28;19908;-85
2024/01/16 02:28:56;;;;;;;;;;;-2.80;99.90;;;;;;5051228;28;20269;-85
2024/01/16 02:31:21;;;;;;;;;;;-2.70;99.90;;;;;;5069322;28;19915;-85
2024/01/16 02:33:47;;;;;;;;;;;-2.70;99.90;;;;;;5064887;28;19912;-84
2024/01/16 02:36:13;;;;;;;;;;;-2.70;99.90;;;;;;5069887;28;20001;-85
2024/01/16 02:38:39;;;;;;;;;;;-2.90;99.90;;;;;;5070774;28;19923;-84
2024/01/16 02:41:05;;;;;;;;;;;-2.90;99.90;;;;;;5057997;28;20410;-84
2024/01/16 02:43:31;;;;;;;;;;;-2.80;99.90;;;;;;5070251;28;19912;-84
2024/01/16 02:45:57;;;;;;;;;;;-2.80;99.90;;;;;;5068203;28;19908;-84
2024/01/16 02:48:23;;;;;;;;;;;-2.80;99.90;;;;;;5052227;28;19912;-84
2024/01/16 02:50:48;;;;;;;;;;;-2.80;99.90;;;;;;5068621;28;19954;-84
2024/01/16 02:53:14;;;;;;;;;;;-2.80;99.90;;;;;;5070293;28;20461;-84
2024/01/16 02:55:39;;;;;;;;;;;-2.90;99.90;;;;;;5069961;28;19908;-84
2024/01/16 02:58:05;;;;;;;;;;;-2.80;99.90;;;;;;5050750;28;20018;-84
2024/01/16 03:00:31;;;;;;;;;;;-2.80;99.90;;;;;;5069842;28;19909;-84
2024/01/16 03:02:56;;;;;;;;;;;-2.80;99.90;;;;;;5069523;28;19912;-84
2024/01/16 03:05:21;;;;;;;;;;;-2.70;99.90;;;;;;5051853;28;19981;-84
2024/01/16 03:07:47;;;;;;;;;;;-2.70;99.90;;;;;;5068052;28;19912;-84
2024/01/16 03:10:12;;;;;;;;;;;-2.70;99.90;;;;;;5069911;28;19917;-84
2024/01/16 03:12:38;;;;;;;;;;;-3.00;99.90;;;;;;5070476;28;19923;-84
2024/01/16 03:15:04;;;;;;;;;;;-2.90;99.90;;;;;;5067569;28;19917;-83
2024/01/16 03:17:29;;;;;;;;;;;-3.00;99.90;;;;;;5061861;28;19919;-84
2024/01/16 03:19:54;;;;;;;;;;;-2.90;99.90;;;;;;5052462;28;20003;-84
2024/01/16 03:22:20;;;;;;;;;;;-3.00;99.90;;;;;;5067288;28;19977;-84
2024/01/16 03:24:45;;;;;;;;;;;-3.30;99.90;;;;;;5069417;28;19915;-84
2024/01/16 03:27:11;;;;;;;;;;;-3.20;99.90;;;;;;5063880;28;19943;-83
2024/01/16 03:29:36;;;;;;;;;;;-3.10;99.90;;;;;;5069242;28;19995;-84
2024/01/16 03:32:02;;;;;;;;;;;-3.20;99.90;;;;;;5065977;28;20046;-84
2024/01/16 03:34:29;;;;;;;;;;;-3.20;99.90;;;;;;5069818;28;19920;-84
2024/01/16 03:36:55;;;;;;;;;;;-3.30;99.90;;;;;;5069455;28;19916;-83
2024/01/16 03:39:20;;;;;;;;;;;-3.10;99.90;;;;;;5071530;28;19916;-84
2024/01/16 03:41:46;;;;;;;;;;;-3.10;99.90;;;;;;5070082;28;19916;-84
2024/01/16 03:44:11;;;;;;;;;;;-3.20;99.90;;;;;;5073277;28;20514;-84
2024/01/16 03:46:37;;;;;;;;;;;-3.10;99.90;;;;;;5073032;28;19912;-83
2024/01/16 03:49:02;;;;;;;;;;;-3.30;99.90;;;;;;5072838;28;19916;-84
2024/01/16 03:51:28;;;;;;;;;;;-3.30;99.90;;;;;;5072759;28;20303;-84
2024/01/16 03:53:53;;;;;;;;;;;-3.30;99.90;;;;;;5073236;28;20470;-84
2024/01/16 03:56:19;;;;;;;;;;;-3.30;99.90;;;;;;5073059;28;20014;-84
2024/01/16 03:58:44;;;;;;;;;;;-3.30;99.90;;;;;;5071579;28;19913;-84
2024/01/16 04:01:10;;;;;;;;;;;-3.20;99.90;;;;;;5071710;28;19916;-83
2024/01/16 04:03:35;;;;;;;;;;;-3.20;99.90;;;;;;5072325;28;19954;-83
2024/01/16 04:06:01;;;;;;;;;;;-3.20;99.90;;;;;;5071974;28;19940;-84
2024/01/16 04:08:26;;;;;;;;;;;-3.30;99.90;;;;;;5072923;28;19910;-84
2024/01/16 04:10:52;;;;;;;;;;;-3.30;99.90;;;;;;5067510;28;20457;-84
2024/01/16 04:13:17;;;;;;;;;;;-3.30;99.90;;;;;;5066097;28;20454;-84
2024/01/16 04:15:43;;;;;;;;;;;-3.20;99.90;;;;;;5070519;28;20257;-83
2024/01/16 04:18:09;;;;;;;;;;;-3.20;99.90;;;;;;5071845;28;20688;-84
2024/01/16 04:20:34;;;;;;;;;;;-3.40;99.90;;;;;;5072363;28;20411;-84
2024/01/16 04:23:00;;;;;;;;;;;-3.30;99.90;;;;;;5053718;28;19947;-84
2024/01/16 04:25:25;;;;;;;;;;;-3.30;99.90;;;;;;5069075;28;19955;-84
2024/01/16 04:27:50;;;;;;;;;;;-3.30;99.90;;;;;;5054072;28;19908;-84
2024/01/16 04:30:16;;;;;;;;;;;-3.40;99.90;;;;;;5069847;28;20357;-84
2024/01/16 04:32:41;;;;;;;;;;;-3.40;99.90;;;;;;5053446;28;20537;-84
2024/01/16 04:35:07;;;;;;;;;;;-3.50;99.90;;;;;;5070653;28;20369;-85
2024/01/16 04:37:32;;;;;;;;;;;-3.50;99.90;;;;;;5065162;28;20333;-84
2024/01/16 04:39:59;;;;;;;;;;;-3.40;99.90;;;;;;5070584;28;19916;-85
2024/01/16 04:42:24;;;;;;;;;;;-3.40;99.90;;;;;;5071418;28;20273;-85
2024/01/16 04:44:50;;;;;;;;;;;-3.40;99.90;;;;;;5068769;28;19912;-85
2024/01/16 04:47:15;;;;;;;;;;;-3.40;99.90;;;;;;5070369;28;20292;-84
2024/01/16 04:49:43;;;;;;;;;;;-3.40;99.90;;;;;;5071077;28;20340;-84
2024/01/16 04:52:09;;;;;;;;;;;-3.40;99.90;;;;;;5069331;28;19920;-84
2024/01/16 04:54:34;;;;;;;;;;;-3.30;99.90;;;;;;5071191;28;19915;-84
2024/01/16 04:57:00;;;;;;;;;;;-3.30;99.90;;;;;;5053086;28;19920;-85
2024/01/16 04:59:25;;;;;;;;;;;-3.40;99.90;;;;;;5071410;28;19909;-84
2024/01/16 05:01:51;;;;;;;;;;;-3.40;99.90;;;;;;5067068;28;20347;-84
2024/01/16 05:04:16;;;;;;;;;;;-3.30;99.90;;;;;;5071535;28;20253;-84
2024/01/16 05:06:42;;;;;;;;;;;-3.30;99.90;;;;;;5072102;28;19920;-84
2024/01/16 05:09:09;;;;;;;;;;;-3.30;99.90;;;;;;5052989;28;20391;-84
2024/01/16 05:11:34;;;;;;;;;;;-3.30;99.90;;;;;;5072603;28;20179;-84
2024/01/16 05:14:00;;;;;;;;;;;-3.20;99.90;;;;;;5072382;28;19998;-85
2024/01/16 05:16:26;;;;;;;;;;;-3.30;99.90;;;;;;5075359;28;19915;-84
2024/01/16 05:18:52;;;;;;;;;;;-3.20;99.90;;;;;;5061319;28;20258;-84
2024/01/16 05:21:17;;;;;;;;;;;-3.20;99.90;;;;;;5068081;28;19994;-84
2024/01/16 05:23:43;;;;;;;;;;;-3.10;99.90;;;;;;5053060;28;19912;-84
2024/01/16 05:26:08;;;;;;;;;;;-3.10;99.90;;;;;;5071952;28;20018;-84
2024/01/16 05:28:34;;;;;;;;;;;-3.10;99.90;;;;;;5053437;28;20087;-85
2024/01/16 05:30:59;;;;;;;;;;;-3.10;99.90;;;;;;5068903;28;19912;-84
2024/01/16 05:33:25;;;;;;;;;;;-3.10;99.90;;;;;;5068836;28;19965;-84
2024/01/16 05:35:50;;;;;;;;;;;-3.10;99.90;;;;;;5066715;28;19909;-85
2024/01/16 05:38:16;;;;;;;;;;;-3.10;99.90;;;;;;5066553;28;19999;-84
2024/01/16 05:40:41;;;;;;;;;;;-3.00;99.90;;;;;;5046326;28;20364;-84
2024/01/16 05:43:07;;;;;;;;;;;-3.30;99.90;;;;;;5069923;28;19916;-85
2024/01/16 05:45:32;;;;;;;;;;;-3.20;99.90;;;;;;5052268;28;20327;-85
2024/01/16 05:47:58;;;;;;;;;;;-3.20;99.90;;;;;;5068854;28;20045;-84
2024/01/16 05:50:23;;;;;;;;;;;-3.20;99.90;;;;;;5051805;28;19966;-84
2024/01/16 05:52:49;;;;;;;;;;;-3.30;99.90;;;;;;5053086;28;20008;-84
2024/01/16 05:55:14;;;;;;;;;;;-3.20;99.90;;;;;;5052036;28;19958;-84
2024/01/16 05:57:40;;;;;;;;;;;-3.30;99.90;;;;;;5069274;28;19920;-84
2024/01/16 06:00:06;;;;;;;;;;;-3.20;99.90;;;;;;5050532;28;19912;-84
2024/01/16 06:02:32;;;;;;;;;;;-3.20;99.90;;;;;;5048478;28;19939;-84
2024/01/16 06:04:57;;;;;;;;;;;-3.30;99.90;;;;;;5067955;28;19935;-85
2024/01/16 06:07:23;;;;;;;;;;;-3.30;99.90;;;;;;5052274;28;19918;-84
2024/01/16 06:09:48;;;;;;;;;;;-3.30;99.90;;;;;;5067608;28;19924;-84
2024/01/16 06:12:14;;;;;;;;;;;-3.30;99.90;;;;;;5067846;28;19912;-84
2024/01/16 06:14:39;;;;;;;;;;;-3.30;99.90;;;;;;5069562;28;19915;-84
2024/01/16 06:17:08;;;;;;;;;;;-3.20;99.90;;;;;;5069418;28;19955;-84
2024/01/16 06:19:33;;;;;;;;;;;-3.20;99.90;;;;;;5067764;28;19927;-84
2024/01/16 06:21:59;;;;;;;;;;;-3.10;99.90;;;;;;5069234;28;21415;-84
2024/01/16 06:24:25;;;;;;;;;;;-3.10;99.90;;;;;;5070232;28;20367;-84
2024/01/16 06:26:50;;;;;;;;;;;-3.10;99.90;;;;;;5070304;28;19908;-83
2024/01/16 06:29:16;;;;;;;;;;;-3.10;99.90;;;;;;5068048;28;20003;-86
2024/01/16 06:31:41;;;;;;;;;;;-3.00;99.90;;;;;;5068734;28;20398;-84
2024/01/16 06:34:07;;;;;;;;;;;-3.00;99.90;;;;;;5060119;28;19912;-85
2024/01/16 06:36:32;;;;;;;;;;;-3.00;99.90;;;;;;5052080;28;19936;-84
2024/01/16 06:38:58;;;;;;;;;;;-2.90;99.90;;;;;;5052131;28;20352;-84
2024/01/16 06:41:23;;;;;;;;;;;-2.90;99.90;;;;;;5069496;28;19920;-84
2024/01/16 06:43:49;;;;;;;;;;;-2.80;99.90;;;;;;5065344;28;20008;-84
2024/01/16 06:46:14;;;;;;;;;;;-2.80;99.90;;;;;;5064058;28;19966;-84
2024/01/16 06:48:39;;;;;;;;;;;-2.70;99.90;;;;;;5069411;28;19908;-84
2024/01/16 06:51:05;;;;;;;;;;;-2.70;99.90;;;;;;5050005;28;19908;-85
2024/01/16 06:53:31;;;;;;;;;;;-2.70;99.90;;;;;;5047958;28;20373;-84
2024/01/16 06:55:56;;;;;;;;;;;-2.70;99.90;;;;;;5056447;28;19936;-84
2024/01/16 06:58:22;;;;;;;;;;;-2.60;99.90;;;;;;5069439;28;19955;-84
2024/01/16 07:01:00;;;;;;;;;;;-2.60;99.90;;;;;;5049821;28;19939;-84
2024/01/16 07:03:25;;;;;;;;;;;-2.60;99.90;;;;;;5064886;28;20499;-84
2024/01/16 07:05:51;;;;;;;;;;;-2.60;99.90;;;;;;5061187;28;19917;-84
2024/01/16 07:08:16;;;;;;;;;;;-2.60;99.90;;;;;;5068562;28;19913;-83
2024/01/16 07:10:42;;;;;;;;;;;-2.50;99.90;;;;;;5068907;28;19920;-84
2024/01/16 07:13:08;;;;;;;;;;;-2.60;99.90;;;;;;5068833;28;19912;-84
2024/01/16 07:15:33;;;;;;;;;;;-2.60;99.90;;;;;;5072342;28;19912;-84
2024/01/16 07:17:59;;;;;;;;;;;-2.50;99.90;;;;;;5072269;28;19932;-83
2024/01/16 07:20:24;;;;;;;;;;;-2.50;99.90;;;;;;5071401;28;19908;-83
2024/01/16 07:22:50;;;;;;;;;;;-2.60;99.90;;;;;;5069501;28;19951;-84
2024/01/16 07:25:15;;;;;;;;;;;-2.50;99.90;;;;;;5072477;28;19909;-83
2024/01/16 07:27:42;;;;;;;;;;;-2.50;99.90;;;;;;5071764;28;19908;-84
2024/01/16 07:30:08;;;;;;;;;;;-2.40;99.90;;;;;;5072497;28;19957;-84
2024/01/16 07:32:33;;;;;;;;;;;-2.40;99.90;;;;;;5072803;28;19923;-83
2024/01/16 07:34:59;;;;;;;;;;;-2.50;99.90;;;;;;5065245;28;19920;-83
2024/01/16 07:37:25;;;;;;;;;;;-2.40;99.90;;;;;;5070500;28;19908;-82
2024/01/16 07:39:50;;;;;;;;;;;-2.40;99.90;;;;;;5071607;28;19912;-82
2024/01/16 07:42:16;;;;;;;;;;;-2.40;99.90;;;;;;5067824;28;19930;-83
2024/01/16 07:44:41;;;;;;;;;;;-2.30;99.90;;;;;;5067531;28;20053;-83
2024/01/16 07:47:07;;;;;;;;;;;-2.30;99.90;;;;;;5048015;28;20391;-82
2024/01/16 07:49:33;;;;;;;;;;;-2.30;99.90;;;;;;5069864;28;19919;-84
2024/01/16 07:51:58;;;;;;;;;;;-2.30;99.90;;;;;;5072419;28;19912;-82
2024/01/16 07:54:25;;;;;;;;;;;-2.30;99.90;;;;;;5066216;28;19919;-82
2024/01/16 07:56:51;;;;;;;;;;;-2.30;99.90;;;;;;5071045;28;19909;-82
2024/01/16 07:59:17;;;;;;;;;;;-2.30;99.90;;;;;;5054241;28;20257;-82
2024/01/16 08:01:43;;;;;;;;;;;-2.30;99.90;;;;;;5052708;28;20021;-82
2024/01/16 08:04:08;;;;;;;;;;;-2.20;99.90;;;;;;5046061;28;19919;-82
2024/01/16 08:06:34;;;;;;;;;;;-2.20;99.90;;;;;;5072645;28;19969;-82
2024/01/16 08:08:59;;;;;;;;;;;-2.20;99.90;;;;;;5070893;28;19908;-83
2024/01/16 08:11:26;;;;;;;;;;;-2.20;99.90;;;;;;5070615;28;20301;-82
2024/01/16 08:13:51;;;;;;;;;;;-2.20;99.90;;;;;;5070271;28;20379;-82
2024/01/16 08:16:17;;;;;;;;;;;-2.10;99.90;;;;;;5066731;28;19913;-83
2024/01/16 08:18:42;;;;;;;;;;;-2.20;99.90;;;;;;5067646;28;20336;-82
2024/01/16 08:21:08;;;;;;;;;;;-2.20;99.90;;;;;;5054281;28;19923;-83
2024/01/16 08:23:34;;;;;;;;;;;-2.10;99.90;;;;;;5050947;28;19912;-82
2024/01/16 08:28:43;;;;;;;;;;;-2.10;99.90;;;;;;5061299;28;19991;-82
2024/01/16 08:31:09;;;;;;;;;;;-2.10;99.90;;;;;;5050404;28;19920;-82
2024/01/16 08:33:34;;;;;;;;;;;-2.00;99.90;;;;;;5053535;28;20340;-83
2024/01/16 08:36:00;;;;;;;;;;;-2.00;99.90;;;;;;5053145;28;19908;-82
2024/01/16 08:38:26;;;;;;;;;;;-2.00;99.90;;;;;;5068626;28;20341;-83
2024/01/16 08:40:52;;;;;;;;;;;-2.00;99.90;;;;;;5068858;28;19912;-82
2024/01/16 08:43:17;;;;;;;;;;;-1.90;99.90;;;;;;5059057;28;19919;-83
2024/01/16 08:45:43;;;;;;;;;;;-1.90;99.90;;;;;;5069621;28;20384;-82
2024/01/16 08:48:09;;;;;;;;;;;-1.90;99.90;;;;;;5070419;28;19912;-83
2024/01/16 08:50:34;;;;;;;;;;;-1.90;99.90;;;;;;5068384;28;19990;-83
2024/01/16 08:53:00;;;;;;;;;;;-1.80;99.90;;;;;;5070124;28;20309;-83
2024/01/16 08:55:26;;;;;;;;;;;-1.80;99.90;;;;;;5067020;28;20284;-83
2024/01/16 08:57:51;;;;;;;;;;;-1.80;99.90;;;;;;5060711;28;19913;-83
2024/01/16 09:00:17;;;;;;;;;;;-1.70;99.90;;;;;;5060247;28;19916;-83
2024/01/16 09:02:42;;;;;;;;;;;-1.70;99.90;;;;;;5060453;28;20275;-83
2024/01/16 09:05:08;;;;;;;;;;;-1.70;99.90;;;;;;5067017;28;20738;-83
2024/01/16 09:07:33;;;;;;;;;;;-1.60;99.90;;;;;;5068361;28;20029;-82
2024/01/16 09:09:59;;;;;;;;;;;-1.50;99.90;;;;;;5065624;28;20220;-83
2024/01/16 09:12:26;;;;;;;;;;;-1.60;99.90;;;;;;5063093;28;19916;-83
2024/01/16 09:14:51;;;;;;;;;;;-1.50;99.90;;;;;;5061931;28;19943;-83
2024/01/16 09:17:17;;;;;;;;;;;-1.40;99.90;;;;;;5065752;28;20622;-83
2024/01/16 09:19:42;;;;;;;;;;;-1.30;99.90;;;;;;5067592;28;20275;-83
2024/01/16 09:22:08;;;;;;;;;;;-1.30;99.90;;;;;;5071424;28;20015;-83
2024/01/16 09:24:33;;;;;;;;;;;-1.10;99.90;;;;;;5069261;28;19912;-82
2024/01/16 09:26:58;;;;;;;;;;;-1.10;99.90;;;;;;5067138;28;19919;-83
2024/01/16 09:29:24;;;;;;;;;;;-1.00;99.90;;;;;;5048421;28;19908;-83
2024/01/16 09:31:50;;;;;;;;;;;-0.90;99.90;;;;;;5068663;28;19904;-83
2024/01/16 09:34:15;;;;;;;;;;;-0.80;99.90;;;;;;5068042;28;19912;-82
2024/01/16 09:36:42;;;;;;;;;;;-0.80;99.90;;;;;;5063498;28;19920;-84
2024/01/16 09:39:08;;;;;;;;;;;-0.80;99.90;;;;;;5051710;28;19962;-83
2024/01/16 09:41:34;;;;;;;;;;;-0.80;99.90;;;;;;5063684;28;20013;-82
2024/01/16 09:43:59;;;;;;;;;;;-0.80;99.90;;;;;;5049308;28;19912;-83
2024/01/16 09:46:25;;;;;;;;;;;-0.80;99.90;;;;;;5065132;28;19916;-83
2024/01/16 09:48:52;;;;;;;;;;;-0.70;99.90;;;;;;5067773;28;19913;-84
2024/01/16 09:51:18;;;;;;;;;;;-0.70;99.90;;;;;;5066381;28;20007;-83
2024/01/16 09:53:43;;;;;;;;;;;-0.60;99.90;;;;;;5065348;28;20230;-82
2024/01/16 09:56:16;;;;;;;;;;;-0.60;99.90;;;;;;5064710;28;20337;-82
2024/01/16 09:58:42;;;;;;;;;;;-0.70;99.90;;;;;;5062255;28;20007;-82
2024/01/16 10:01:08;;;;;;;;;;;-0.60;99.90;;;;;;5062715;28;19924;-83
2024/01/16 10:03:37;;;;;;;;;;;-0.60;99.90;;;;;;5060013;28;19912;-81
2024/01/16 10:06:06;;;;;;;;;;;-0.60;99.90;;;;;;5067056;28;19935;-83
2024/01/16 10:08:31;;;;;;;;;;;-0.50;99.90;;;;;;5063438;28;20000;-82
2024/01/16 10:11:00;;;;;;;;;;;-0.50;99.90;;;;;;5063536;28;20035;-83
2024/01/16 10:13:26;;;;;;;;;;;-0.40;99.90;;;;;;5049145;28;19908;-82
2024/01/16 10:15:52;;;;;;;;;;;-0.40;99.90;;;;;;5060388;28;19908;-82
2024/01/16 10:18:27;;;;;;;;;;;-0.30;99.90;;;;;;5067656;28;19958;-82
2024/01/16 10:20:53;;;;;;;;;;;-0.30;99.90;;;;;;5067673;28;20023;-83
2024/01/16 10:23:28;;;;;;;;;;;-0.20;99.90;;;;;;5066827;28;20007;-83
2024/01/16 10:26:06;;;;;;;;;;;-0.20;99.90;;;;;;5068342;28;19912;-82
2024/01/16 10:28:34;;;;;;;;;;;0.00;99.90;;;;;;5067017;28;19952;-81
2024/01/16 10:31:12;;;;;;;;;;;0.30;99.90;;;;;;5062905;28;20435;-82
2024/01/16 10:33:39;;;;;;;;;;;0.40;99.90;;;;;;5064377;28;19970;-82
2024/01/16 10:36:08;;;;;;;;;;;0.40;99.90;;;;;;5068273;28;19954;-82
2024/01/16 10:38:35;;;;;;;;;;;0.70;99.90;;;;;;5064149;28;19913;-82
2024/01/16 10:41:10;;;;;;;;;;;1.10;99.90;;;;;;5032596;28;19962;-82
2024/01/16 10:43:36;;;;;;;;;;;1.40;99.90;;;;;;5064254;28;20003;-82
2024/01/16 10:46:12;;;;;;;;;;;1.70;99.90;;;;;;5054373;28;19999;-82
2024/01/16 10:48:38;;;;;;;;;;;2.00;99.90;;;;;;5042153;28;19916;-81
2024/01/16 10:51:05;;;;;;;;;;;2.10;99.90;;;;;;5069163;28;19919;-81
2024/01/16 10:53:32;;;;;;;;;;;2.20;99.90;;;;;;5059469;28;19915;-82
2024/01/16 10:55:59;;;;;;;;;;;2.00;99.90;;;;;;5060314;28;19916;-82
2024/01/16 10:58:29;;;;;;;;;;;1.70;99.90;;;;;;5069145;28;19912;-82
2024/01/16 11:00:56;;;;;;;;;;;1.80;99.90;;;;;;5062033;28;19909;-80
2024/01/16 11:03:35;;;;;;;;;;;2.00;99.90;;;;;;5045454;28;19916;-82
2024/01/16 11:06:00;;;;;;;;;;;2.00;99.90;;;;;;5064403;28;19917;-82
2024/01/16 11:08:30;;;;;;;;;;;1.60;99.90;;;;;;5064625;28;20027;-81
2024/01/16 11:10:57;;;;;;;;;;;1.50;99.90;;;;;;5052775;28;19920;-82
2024/01/16 11:13:23;;;;;;;;;;;1.30;99.90;;;;;;5066658;28;19912;-82
2024/01/16 11:15:49;;;;;;;;;;;1.10;99.90;;;;;;5063846;28;19919;-82
2024/01/16 11:18:16;;;;;;;;;;;1.10;99.90;;;;;;5064199;28;19908;-82
2024/01/16 11:20:42;;;;;;;;;;;1.00;99.90;;;;;;5069715;28;20315;-84
2024/01/16 11:23:10;;;;;;;;;;;1.00;99.90;;;;;;5064461;28;20011;-84
2024/01/16 11:25:35;;;;;;;;;;;1.10;99.90;;;;;;5063026;28;20353;-86
2024/01/16 11:28:07;;;;;;;;;;;1.30;99.90;;;;;;5071914;28;19943;-85
2024/01/16 11:30:33;;;;;;;;;;;1.30;99.90;;;;;;5050682;28;19912;-85
2024/01/16 11:32:59;;;;;;;;;;;1.40;99.90;;;;;;5065779;28;19912;-83
2024/01/16 11:35:34;;;;;;;;;;;1.40;99.90;;;;;;5042625;28;19962;-84
2024/01/16 11:38:20;;;;;;;;;;;1.10;99.90;;;;;;5068921;28;20011;-84
2024/01/16 11:40:46;;;;;;;;;;;0.90;99.90;;;;;;5049061;28;20318;-84
2024/01/16 11:43:30;;;;;;;;;;;0.80;99.90;;;;;;5045468;28;19923;-83
2024/01/16 11:45:57;;;;;;;;;;;0.80;99.90;;;;;;5043124;28;19943;-84
2024/01/16 11:48:23;;;;;;;;;;;0.80;99.90;;;;;;5065265;28;20386;-84
2024/01/16 11:50:48;;;;;;;;;;;0.70;99.90;;;;;;5063716;28;19959;-83
2024/01/16 11:53:33;;;;;;;;;;;0.70;99.90;;;;;;5064236;28;20391;-84
2024/01/16 11:56:01;;;;;;;;;;;0.70;99.90;;;;;;5068212;28;19919;-84
2024/01/16 11:58:48;;;;;;;;;;;0.70;99.90;;;;;;5069273;28;20248;-84
2024/01/16 12:01:14;;;;;;;;;;;0.70;99.90;;;;;;5054662;28;19920;-84
2024/01/16 12:03:39;;;;;;;;;;;1.00;99.90;;;;;;5065640;28;20588;-84
2024/01/16 12:06:06;;;;;;;;;;;1.20;99.90;;;;;;5072007;28;20067;-84
2024/01/16 12:08:32;;;;;;;;;;;1.30;99.90;;;;;;5069902;28;19912;-84
2024/01/16 12:10:57;;;;;;;;;;;1.30;99.90;;;;;;5072045;28;20340;-84
2024/01/16 12:13:23;;;;;;;;;;;1.30;99.90;;;;;;5071998;28;19913;-84
2024/01/16 12:15:58;;;;;;;;;;;1.40;99.90;;;;;;5065872;28;19912;-84
2024/01/16 12:18:24;;;;;;;;;;;1.50;99.90;;;;;;5060703;28;19912;-84
2024/01/16 12:20:50;;;;;;;;;;;1.90;99.90;;;;;;5052699;28;19909;-84
2024/01/16 12:23:18;;;;;;;;;;;1.90;99.90;;;;;;5069149;28;19912;-84
2024/01/16 12:25:44;;;;;;;;;;;1.80;99.90;;;;;;5049253;28;19916;-85
2024/01/16 12:28:10;;;;;;;;;;;1.50;99.90;;;;;;5067125;28;19966;-85
2024/01/16 12:30:37;;;;;;;;;;;1.40;99.90;;;;;;5053529;28;20081;-86
2024/01/16 12:33:12;;;;;;;;;;;1.80;99.90;;;;;;5071383;28;20315;-85
2024/01/16 12:35:38;;;;;;;;;;;1.80;99.90;;;;;;5066159;28;20015;-85
2024/01/16 12:38:05;;;;;;;;;;;2.40;99.90;;;;;;5072776;28;19923;-84
2024/01/16 12:40:31;;;;;;;;;;;2.90;99.90;;;;;;5052688;28;19919;-84
2024/01/16 12:42:57;;;;;;;;;;;3.50;99.90;;;;;;5072151;28;20515;-83
2024/01/16 12:45:23;;;;;;;;;;;3.40;99.90;;;;;;5069593;28;19917;-82
2024/01/16 12:47:50;;;;;;;;;;;3.80;99.90;;;;;;5038668;28;19923;-83
2024/01/16 12:50:19;;;;;;;;;;;3.40;99.90;;;;;;5054662;28;19948;-84
2024/01/16 12:52:45;;;;;;;;;;;3.10;99.90;;;;;;5071258;28;19908;-83
2024/01/16 12:55:13;;;;;;;;;;;3.00;99.90;;;;;;5072430;28;19958;-85
2024/01/16 12:57:39;;;;;;;;;;;2.90;99.90;;;;;;5072753;28;20002;-87
2024/01/16 13:00:21;;;;;;;;;;;2.60;99.90;;;;;;5065418;28;20000;-87
2024/01/16 13:02:49;;;;;;;;;;;2.20;99.90;;;;;;5052765;28;19920;-85
2024/01/16 13:05:15;;;;;;;;;;;1.90;99.90;;;;;;5071046;28;19920;-85
2024/01/16 13:07:41;;;;;;;;;;;2.00;99.90;;;;;;5070539;28;19912;-82
2024/01/16 13:10:11;;;;;;;;;;;2.20;99.90;;;;;;5071531;28;20378;-84
2024/01/16 13:12:37;;;;;;;;;;;2.60;99.90;;;;;;5069884;28;19916;-86
2024/01/16 13:15:05;;;;;;;;;;;2.80;99.90;;;;;;5065492;28;19923;-86
2024/01/16 13:17:31;;;;;;;;;;;2.80;99.90;;;;;;5071399;28;19947;-86
2024/01/16 13:19:57;;;;;;;;;;;2.80;99.90;;;;;;5071798;28;19908;-85
2024/01/16 13:22:23;;;;;;;;;;;3.20;99.90;;;;;;5065928;28;19927;-87
2024/01/16 13:24:48;;;;;;;;;;;3.40;99.90;;;;;;5070603;28;19918;-85
2024/01/16 13:27:14;;;;;;;;;;;3.90;99.90;;;;;;5069701;28;19913;-83
2024/01/16 13:29:40;;;;;;;;;;;3.70;99.90;;;;;;5070992;28;19908;-84
2024/01/16 13:32:05;;;;;;;;;;;3.30;99.90;;;;;;5070363;28;19915;-84
2024/01/16 13:34:31;;;;;;;;;;;2.80;99.90;;;;;;5052520;28;19908;-86
2024/01/16 13:36:59;;;;;;;;;;;2.70;99.90;;;;;;5070961;28;19920;-86
2024/01/16 13:39:25;;;;;;;;;;;2.80;99.90;;;;;;5069432;28;20276;-86
2024/01/16 13:41:50;;;;;;;;;;;2.50;99.90;;;;;;5051586;28;19912;-87
2024/01/16 13:44:16;;;;;;;;;;;2.10;99.90;;;;;;5065721;28;19912;-86
2024/01/16 13:46:41;;;;;;;;;;;2.30;99.90;;;;;;5068548;28;19908;-86
2024/01/16 13:49:07;;;;;;;;;;;2.50;99.90;;;;;;5070697;28;19908;-86
2024/01/16 13:51:32;;;;;;;;;;;3.00;99.90;;;;;;5065412;28;19923;-82
2024/01/16 13:53:58;;;;;;;;;;;3.40;99.90;;;;;;5063910;28;20054;-82
2024/01/16 13:56:24;;;;;;;;;;;3.30;99.90;;;;;;5069772;28;19998;-84
2024/01/16 13:58:49;;;;;;;;;;;3.00;99.90;;;;;;5061354;28;20353;-83
2024/01/16 14:01:15;;;;;;;;;;;3.00;99.90;;;;;;5051983;28;20507;-84
2024/01/16 14:03:42;;;;;;;;;;;2.70;99.90;;;;;;5060340;28;19997;-81
2024/01/16 14:06:08;;;;;;;;;;;2.60;99.90;;;;;;5043989;28;19916;-85
2024/01/16 14:08:33;;;;;;;;;;;2.20;99.90;;;;;;5051020;28;19919;-85
2024/01/16 14:10:59;;;;;;;;;;;2.10;99.90;;;;;;5053572;28;19928;-84
2024/01/16 14:13:25;;;;;;;;;;;1.80;99.90;;;;;;5056054;28;20284;-84
2024/01/16 14:15:51;;;;;;;;;;;1.80;99.90;;;;;;5054161;28;20382;-86
2024/01/16 14:18:16;;;;;;;;;;;1.70;99.90;;;;;;5046952;28;19924;-87